Time;durP1;ratioP1;P1;durP2;ratioP2;P2;SDS_P1;SDS_P2;PMS_P1;PMS_P2;Temp;Humidity;BMP_temperature;BMP_pressure;BME280_temperature;BME280_humidity;BME280_pressure;Samples;Min_cycle;Max_cycle;Signal;HPM_P1;HPM_P2
2021/06/23 00:01:45;;;;;;;4.33;3.57;;;18.60;50.70;;;;;;5115111;28;20936;-67
2021/06/23 00:04:14;;;;;;;5.67;3.87;;;18.60;99.90;;;;;;5114950;28;20483;-67
2021/06/23 00:06:40;;;;;;;5.53;3.50;;;18.60;99.90;;;;;;5114820;28;20456;-67
2021/06/23 00:09:07;;;;;;;6.17;3.33;;;18.60;99.90;;;;;;5115036;28;20772;-66
2021/06/23 00:11:39;;;;;;;4.83;3.23;;;18.50;99.90;;;;;;5115209;28;20463;-67
2021/06/23 00:14:05;;;;;;;4.53;4.10;;;18.50;99.90;;;;;;5115624;28;20448;-67
2021/06/23 00:16:32;;;;;;;6.57;3.70;;;18.50;99.90;;;;;;5114759;28;20456;-67
2021/06/23 00:18:59;;;;;;;6.27;4.53;;;18.50;99.90;;;;;;5117662;28;20783;-67
2021/06/23 00:21:27;;;;;;;4.57;3.60;;;18.50;99.90;;;;;;5119554;28;20777;-67
2021/06/23 00:23:54;;;;;;;5.10;4.60;;;18.50;1.00;;;;;;5118822;28;20464;-67
2021/06/23 00:26:21;;;;;;;5.87;4.60;;;18.50;1.00;;;;;;5118975;28;20456;-66
2021/06/23 00:28:47;;;;;;;7.17;4.47;;;18.50;1.00;;;;;;5119083;28;20483;-66
2021/06/23 00:31:14;;;;;;;7.47;4.67;;;18.50;1.00;;;;;;5119231;28;20452;-66
2021/06/23 00:33:42;;;;;;;4.30;3.90;;;18.40;1.00;;;;;;5118646;28;20460;-66
2021/06/23 00:36:09;;;;;;;5.03;3.97;;;18.40;99.90;;;;;;5118653;27;20452;-66
2021/06/23 00:38:37;;;;;;;5.07;4.57;;;18.40;99.90;;;;;;5118206;28;20905;-66
2021/06/23 00:41:04;;;;;;;6.70;3.90;;;18.40;1.00;;;;;;5119173;28;20456;-66
2021/06/23 00:43:32;;;;;;;4.60;3.83;;;18.30;1.00;;;;;;5119069;28;20818;-66
2021/06/23 00:45:58;;;;;;;8.17;4.17;;;18.30;1.00;;;;;;5118359;28;20547;-66
2021/06/23 00:48:29;;;;;;;7.23;3.97;;;18.30;1.00;;;;;;5118234;28;20451;-66
2021/06/23 00:50:56;;;;;;;5.07;3.70;;;18.30;1.00;;;;;;5118174;28;20436;-66
2021/06/23 00:53:23;;;;;;;4.07;3.70;;;18.30;1.00;;;;;;5118142;28;20444;-66
2021/06/23 00:55:54;;;;;;;3.87;3.57;;;18.30;1.00;;;;;;5118437;28;20509;-66
2021/06/23 00:58:21;;;;;;;4.90;3.67;;;18.20;1.00;;;;;;5118524;28;20452;-66
2021/06/23 01:00:50;;;;;;;7.27;4.10;;;18.20;1.00;;;;;;5118020;28;20789;-66
2021/06/23 01:03:17;;;;;;;4.50;3.80;;;18.20;12.40;;;;;;5118116;28;20496;-65
2021/06/23 01:05:44;;;;;;;4.60;4.00;;;18.10;99.90;;;;;;5118107;28;20468;-66
2021/06/23 01:08:13;;;;;;;5.50;3.83;;;18.10;99.90;;;;;;5118253;28;20456;-66
2021/06/23 01:10:42;;;;;;;4.03;3.50;;;18.10;99.90;;;;;;5118202;28;20464;-66
2021/06/23 01:13:33;;;;;;;4.43;3.70;;;18.10;99.90;;;;;;5118163;28;20755;-66
2021/06/23 01:16:03;;;;;;;4.83;3.80;;;18.10;99.90;;;;;;5118077;28;20531;-67
2021/06/23 01:18:30;;;;;;;4.60;3.60;;;18.10;99.90;;;;;;5119202;28;20489;-67
2021/06/23 01:20:57;;;;;;;6.17;4.00;;;18.00;99.90;;;;;;5118428;28;20784;-68
2021/06/23 01:23:25;;;;;;;5.17;3.60;;;18.00;1.00;;;;;;5118459;28;20475;-66
2021/06/23 01:25:52;;;;;;;5.33;3.80;;;18.00;1.00;;;;;;5118804;28;20464;-66
2021/06/23 01:28:20;;;;;;;4.63;4.20;;;18.00;1.00;;;;;;5117953;28;20456;-66
2021/06/23 01:30:47;;;;;;;5.60;3.93;;;18.00;24.70;;;;;;5118050;28;20457;-66
2021/06/23 01:33:14;;;;;;;7.07;3.73;;;18.10;99.90;;;;;;5118428;28;20773;-66
2021/06/23 01:35:45;;;;;;;5.17;3.70;;;18.10;43.10;;;;;;5118361;28;20522;-67
2021/06/23 01:38:11;;;;;;;4.90;4.40;;;18.10;1.00;;;;;;5118235;28;20772;-67
2021/06/23 01:40:40;;;;;;;7.03;4.53;;;18.10;1.00;;;;;;5117833;28;20452;-67
2021/06/23 01:43:09;;;;;;;5.17;4.50;;;18.10;1.00;;;;;;5117391;28;20471;-67
2021/06/23 01:45:35;;;;;;;4.90;4.50;;;18.10;1.00;;;;;;5118147;28;20524;-67
2021/06/23 01:48:02;;;;;;;6.83;5.13;;;18.10;1.00;;;;;;5117470;28;20519;-67
2021/06/23 01:50:29;;;;;;;7.20;4.30;;;18.10;1.00;;;;;;5118202;28;20456;-67
2021/06/23 01:52:56;;;;;;;5.77;4.23;;;18.10;1.90;;;;;;5117456;28;20456;-67
2021/06/23 01:55:28;;;;;;;7.50;4.77;;;18.10;1.00;;;;;;5117790;28;20457;-67
2021/06/23 01:58:01;;;;;;;7.70;4.10;;;18.10;1.00;;;;;;5117570;28;20920;-66
2021/06/23 02:00:45;;;;;;;5.33;4.77;;;18.10;1.00;;;;;;5117695;28;20441;-66
2021/06/23 02:03:18;;;;;;;5.10;4.30;;;18.10;99.90;;;;;;5117589;28;20472;-66
2021/06/23 02:05:58;;;;;;;7.87;4.60;;;18.00;1.00;;;;;;5117189;28;20443;-66
2021/06/23 02:08:40;;;;;;;7.50;4.97;;;18.00;99.90;;;;;;5117259;28;20764;-67
2021/06/23 02:11:21;;;;;;;6.10;5.50;;;18.00;1.00;;;;;;5116718;28;20747;-67
2021/06/23 02:14:16;;;;;;;6.23;4.87;;;18.00;1.00;;;;;;5116853;28;20820;-66
2021/06/23 02:16:43;;;;;;;6.27;4.70;;;17.90;1.00;;;;;;5116727;28;20927;-67
2021/06/23 02:19:10;;;;;;;6.97;5.63;;;17.90;1.00;;;;;;5117045;28;20468;-66
2021/06/23 02:21:39;;;;;;;7.23;5.77;;;17.80;1.00;;;;;;5116693;28;20772;-67
2021/06/23 02:24:08;;;;;;;5.60;5.07;;;17.80;1.00;;;;;;5116535;28;20759;-66
2021/06/23 02:26:36;;;;;;;9.10;5.90;;;17.80;1.00;;;;;;5116519;28;20463;-67
2021/06/23 02:29:03;;;;;;;5.80;5.27;;;17.70;1.00;;;;;;5115964;28;20453;-67
2021/06/23 02:31:35;;;;;;;6.70;5.50;;;17.70;99.90;;;;;;5115921;28;20452;-67
2021/06/23 02:34:06;;;;;;;6.73;5.53;;;17.70;99.90;;;;;;5116467;28;20437;-67
2021/06/23 02:36:33;;;;;;;6.70;5.50;;;17.70;99.90;;;;;;5117870;28;20448;-67
2021/06/23 02:39:00;;;;;;;6.43;5.10;;;17.70;99.90;;;;;;5117204;28;20947;-66
2021/06/23 02:41:27;;;;;;;6.13;5.50;;;17.60;99.90;;;;;;5117716;28;20534;-66
2021/06/23 02:43:53;;;;;;;8.33;5.67;;;17.60;99.90;;;;;;5116727;28;20770;-66
2021/06/23 02:46:20;;;;;;;5.63;5.03;;;17.60;99.90;;;;;;5116103;28;20825;-66
2021/06/23 02:48:52;;;;;;;8.73;5.93;;;17.60;99.90;;;;;;5115781;28;20440;-66
2021/06/23 02:51:21;;;;;;;5.20;4.73;;;17.60;99.90;;;;;;5116124;28;20456;-66
2021/06/23 02:53:50;;;;;;;8.70;5.20;;;17.60;99.90;;;;;;5116126;28;20478;-66
2021/06/23 02:56:18;;;;;;;6.27;5.10;;;17.60;99.90;;;;;;5115928;28;20456;-66
2021/06/23 02:58:45;;;;;;;6.00;4.60;;;17.60;99.90;;;;;;5115556;28;20464;-66
2021/06/23 03:01:13;;;;;;;6.43;5.27;;;17.60;99.90;;;;;;5115749;28;20466;-66
2021/06/23 03:03:41;;;;;;;6.47;5.50;;;17.50;99.90;;;;;;5115820;28;20491;-66
2021/06/23 03:06:09;;;;;;;6.77;5.30;;;17.50;17.20;;;;;;5115805;28;20467;-66
2021/06/23 03:08:38;;;;;;;7.63;5.20;;;17.50;1.00;;;;;;5115104;28;20460;-66
2021/06/23 03:11:06;;;;;;;8.27;5.27;;;17.50;1.00;;;;;;5115805;28;20467;-66
2021/06/23 03:13:33;;;;;;;8.67;5.40;;;17.50;1.00;;;;;;5115437;28;20464;-66
2021/06/23 03:15:59;;;;;;;6.50;5.07;;;17.50;99.90;;;;;;5115456;28;20918;-66
2021/06/23 03:18:28;;;;;;;7.93;4.53;;;17.50;99.90;;;;;;5115459;28;20472;-66
2021/06/23 03:20:55;;;;;;;8.37;5.97;;;17.50;6.70;;;;;;5115270;28;20456;-66
2021/06/23 03:23:23;;;;;;;5.47;4.67;;;17.50;1.00;;;;;;5115432;28;20955;-65
2021/06/23 03:25:50;;;;;;;9.30;5.40;;;17.50;1.00;;;;;;5115544;28;20456;-66
2021/06/23 03:28:17;;;;;;;5.93;5.13;;;17.50;1.00;;;;;;5115913;28;20460;-66
2021/06/23 03:30:44;;;;;;;5.87;4.67;;;17.50;1.00;;;;;;5115591;28;20464;-66
2021/06/23 03:33:11;;;;;;;7.63;5.40;;;17.50;1.00;;;;;;5115577;28;20535;-66
2021/06/23 03:35:38;;;;;;;5.63;5.13;;;17.50;1.00;;;;;;5115435;28;20456;-66
2021/06/23 03:38:05;;;;;;;4.97;4.30;;;17.50;1.00;;;;;;5115882;28;20757;-66
2021/06/23 03:40:33;;;;;;;5.00;4.47;;;17.50;1.00;;;;;;5115880;28;20471;-66
2021/06/23 03:43:03;;;;;;;5.13;4.63;;;17.50;99.90;;;;;;5115580;28;20541;-66
2021/06/23 03:45:30;;;;;;;5.20;4.40;;;17.50;99.90;;;;;;5115526;28;20885;-66
2021/06/23 03:47:57;;;;;;;6.00;4.80;;;17.40;99.90;;;;;;5115806;28;20952;-66
2021/06/23 03:50:23;;;;;;;7.07;4.90;;;17.40;1.00;;;;;;5114717;28;20456;-66
2021/06/23 03:52:50;;;;;;;4.93;4.43;;;17.40;1.00;;;;;;5115221;28;20448;-66
2021/06/23 03:55:20;;;;;;;7.87;4.97;;;17.40;1.00;;;;;;5118130;28;20927;-66
2021/06/23 03:57:51;;;;;;;5.90;4.60;;;17.40;1.00;;;;;;5118623;28;20464;-66
2021/06/23 04:00:20;;;;;;;6.70;5.00;;;17.30;91.00;;;;;;5118202;28;20467;-66
2021/06/23 04:02:47;;;;;;;5.40;4.77;;;17.30;99.90;;;;;;5117885;28;20487;-66
2021/06/23 04:05:14;;;;;;;5.93;5.10;;;17.30;99.90;;;;;;5118318;28;20819;-66
2021/06/23 04:07:41;;;;;;;6.80;4.97;;;17.30;99.90;;;;;;5117987;28;20456;-66
2021/06/23 04:10:09;;;;;;;6.07;4.77;;;17.20;99.90;;;;;;5118088;28;21073;-66
2021/06/23 04:12:36;;;;;;;5.50;4.60;;;17.20;99.90;;;;;;5118942;28;20832;-66
2021/06/23 04:15:06;;;;;;;5.03;4.60;;;17.20;1.00;;;;;;5118960;28;20453;-66
2021/06/23 04:17:34;;;;;;;10.63;5.40;;;17.20;1.00;;;;;;5118452;28;20480;-66
2021/06/23 04:20:00;;;;;;;6.90;4.87;;;17.20;1.00;;;;;;5118405;28;20482;-67
2021/06/23 04:22:28;;;;;;;6.53;5.63;;;17.20;1.00;;;;;;5118013;28;20468;-67
2021/06/23 04:24:55;;;;;;;5.80;5.30;;;17.20;1.00;;;;;;5117941;28;20452;-66
2021/06/23 04:27:22;;;;;;;9.07;5.70;;;17.20;1.00;;;;;;5117601;28;20452;-67
2021/06/23 04:29:52;;;;;;;6.77;4.83;;;17.20;16.20;;;;;;5117458;28;20452;-67
2021/06/23 04:32:20;;;;;;;5.80;5.00;;;17.30;1.00;;;;;;5117432;28;20502;-67
2021/06/23 04:34:47;;;;;;;8.83;5.90;;;17.30;1.00;;;;;;5117002;28;20452;-67
2021/06/23 04:37:14;;;;;;;6.70;5.10;;;17.30;1.00;;;;;;5117088;28;20456;-67
2021/06/23 04:39:41;;;;;;;5.47;4.70;;;17.40;1.00;;;;;;5117264;28;20467;-67
2021/06/23 04:42:08;;;;;;;5.70;5.20;;;17.40;1.00;;;;;;5117046;28;20475;-66
2021/06/23 04:44:35;;;;;;;5.70;5.13;;;17.40;1.00;;;;;;5116886;28;20452;-67
2021/06/23 04:47:01;;;;;;;6.50;5.23;;;17.50;1.00;;;;;;5066606;28;1206833;-67
2021/06/23 04:49:29;;;;;;;6.03;5.30;;;17.50;1.00;;;;;;5098343;28;20195;-66
2021/06/23 04:51:56;;;;;;;5.47;4.97;;;17.50;1.00;;;;;;5097278;28;20464;-66
2021/06/23 04:54:23;;;;;;;6.40;5.30;;;17.60;1.00;;;;;;5097976;28;20518;-67
2021/06/23 04:56:49;;;;;;;18.67;15.10;;;17.60;1.00;;;;;;5097341;28;20777;-67
2021/06/23 04:59:16;;;;;;;25.80;21.70;;;17.60;1.00;;;;;;5097542;28;20491;-67
2021/06/23 05:01:43;;;;;;;6.93;6.27;;;17.70;99.90;;;;;;5097550;28;20453;-67
2021/06/23 05:04:10;;;;;;;5.70;5.10;;;17.70;99.90;;;;;;5097738;28;20491;-67
2021/06/23 05:06:38;;;;;;;5.93;5.33;;;17.70;99.90;;;;;;5096925;28;20461;-67
2021/06/23 05:09:06;;;;;;;5.83;5.23;;;17.80;1.00;;;;;;5097450;28;20468;-67
2021/06/23 05:11:33;;;;;;;6.13;5.50;;;17.80;1.00;;;;;;5097213;28;20481;-67
2021/06/23 05:14:00;;;;;;;8.53;6.20;;;18.00;99.90;;;;;;5098179;28;20481;-67
2021/06/23 05:16:27;;;;;;;6.13;5.10;;;18.10;99.90;;;;;;5098227;28;20922;-67
2021/06/23 05:18:54;;;;;;;5.73;5.23;;;18.20;99.90;;;;;;5098718;28;20830;-67
2021/06/23 05:21:21;;;;;;;12.80;7.27;;;18.30;6.80;;;;;;5098414;28;20465;-67
2021/06/23 05:23:57;;;;;;;11.23;5.10;;;18.40;1.00;;;;;;5097709;28;20488;-67
2021/06/23 05:26:24;;;;;;;6.27;5.70;;;18.50;92.90;;;;;;5096594;28;20441;-67
2021/06/23 05:28:51;;;;;;;4.93;4.30;;;18.60;99.90;;;;;;5097655;28;20480;-67
2021/06/23 05:31:17;;;;;;;6.83;4.00;;;18.70;1.00;;;;;;5097231;28;20457;-67
2021/06/23 05:33:44;;;;;;;7.33;5.63;;;18.80;1.00;;;;;;5097067;28;20770;-67
2021/06/23 05:36:11;;;;;;;7.90;4.03;;;18.90;1.00;;;;;;5097348;28;20460;-66
2021/06/23 05:38:39;;;;;;;5.90;4.03;;;19.00;1.00;;;;;;5097101;28;20457;-66
2021/06/23 05:41:08;;;;;;;9.33;4.97;;;19.10;99.90;;;;;;5097262;28;20792;-66
2021/06/23 05:43:34;;;;;;;7.90;4.97;;;19.20;96.40;;;;;;5096827;28;20492;-66
2021/06/23 05:46:01;;;;;;;8.20;3.80;;;19.30;1.00;;;;;;5096377;28;20465;-66
2021/06/23 05:48:28;;;;;;;3.90;3.50;;;19.30;1.00;;;;;;5096577;28;20824;-67
2021/06/23 05:50:54;;;;;;;5.27;3.60;;;19.50;1.00;;;;;;5096310;28;20457;-67
2021/06/23 05:53:21;;;;;;;5.90;3.10;;;19.50;99.90;;;;;;5096520;28;20450;-67
2021/06/23 05:55:48;;;;;;;11.17;3.23;;;19.60;99.90;;;;;;5096417;28;20463;-67
2021/06/23 05:58:16;;;;;;;7.50;3.03;;;19.60;1.00;;;;;;5096267;28;20489;-67
2021/06/23 06:00:43;;;;;;;5.33;3.40;;;19.60;1.00;;;;;;5096355;28;20501;-67
2021/06/23 06:03:09;;;;;;;5.70;3.37;;;19.50;1.00;;;;;;5095904;28;20477;-66
2021/06/23 06:05:36;;;;;;;3.80;3.40;;;19.60;1.00;;;;;;5096228;28;20803;-67
2021/06/23 06:08:03;;;;;;;13.03;3.27;;;19.60;1.00;;;;;;5096436;28;20453;-67
2021/06/23 06:10:30;;;;;;;7.37;3.50;;;19.60;1.00;;;;;;5096075;28;20461;-67
2021/06/23 06:12:57;;;;;;;5.87;3.60;;;19.70;1.00;;;;;;5095803;28;20528;-67
2021/06/23 06:15:25;;;;;;;6.90;3.00;;;19.70;1.00;;;;;;5095354;28;20795;-67
2021/06/23 06:17:51;;;;;;;8.43;3.77;;;19.70;1.00;;;;;;5096495;28;20560;-69
2021/06/23 06:20:18;;;;;;;7.40;3.57;;;19.80;1.00;;;;;;5095867;28;20941;-67
2021/06/23 06:22:45;;;;;;;7.73;3.10;;;19.80;1.00;;;;;;5096156;28;20832;-68
2021/06/23 06:25:13;;;;;;;4.70;2.80;;;19.80;1.00;;;;;;5096695;28;20457;-69
2021/06/23 06:27:40;;;;;;;6.83;3.13;;;19.90;1.00;;;;;;5096610;28;20513;-68
2021/06/23 06:30:07;;;;;;;5.63;2.87;;;20.00;1.00;;;;;;5095966;28;20792;-69
2021/06/23 06:32:35;;;;;;;7.57;3.20;;;20.10;1.00;;;;;;5095753;28;20465;-68
2021/06/23 06:35:02;;;;;;;4.77;3.60;;;20.20;1.00;;;;;;5095837;28;20475;-69
2021/06/23 06:37:29;;;;;;;6.50;3.50;;;20.30;1.00;;;;;;5096253;28;20917;-68
2021/06/23 06:39:56;;;;;;;10.83;3.70;;;20.30;1.00;;;;;;5095734;28;20472;-68
2021/06/23 06:42:22;;;;;;;8.47;3.40;;;20.30;1.00;;;;;;5096183;28;20453;-69
2021/06/23 06:44:49;;;;;;;10.27;3.73;;;20.30;1.00;;;;;;5096149;28;20779;-69
2021/06/23 06:47:16;;;;;;;3.90;3.47;;;20.30;1.00;;;;;;5096048;28;20492;-69
2021/06/23 06:49:44;;;;;;;4.13;3.50;;;20.30;1.00;;;;;;5096395;28;20465;-69
2021/06/23 06:52:11;;;;;;;5.00;3.47;;;20.30;1.00;;;;;;5097217;28;20529;-69
2021/06/23 06:54:38;;;;;;;6.43;3.33;;;20.40;1.00;;;;;;5096385;28;20453;-69
2021/06/23 06:57:06;;;;;;;6.97;3.00;;;20.40;1.00;;;;;;5095862;28;20548;-70
2021/06/23 06:59:33;;;;;;;5.77;3.17;;;20.40;1.00;;;;;;5096115;28;20467;-69
2021/06/23 07:02:00;;;;;;;4.93;3.40;;;20.40;1.00;;;;;;5095678;28;20449;-69
2021/06/23 07:04:27;;;;;;;5.17;3.90;;;20.50;1.00;;;;;;5095577;28;20481;-70
2021/06/23 07:06:55;;;;;;;3.50;3.20;;;20.60;1.00;;;;;;5095736;28;20480;-69
2021/06/23 07:09:22;;;;;;;5.13;3.17;;;20.60;1.00;;;;;;5096343;28;20457;-69
2021/06/23 07:11:50;;;;;;;5.63;3.03;;;20.70;1.00;;;;;;5096062;28;20467;-69
2021/06/23 07:14:16;;;;;;;9.10;3.50;;;20.70;1.00;;;;;;5096015;28;20469;-69
2021/06/23 07:16:45;;;;;;;5.63;2.70;;;20.70;1.00;;;;;;5096714;28;20463;-69
2021/06/23 07:19:12;;;;;;;12.40;8.50;;;20.60;1.00;;;;;;5096726;28;20515;-69
2021/06/23 07:21:39;;;;;;;5.77;3.67;;;20.70;1.00;;;;;;5096600;28;20523;-70
2021/06/23 07:24:08;;;;;;;9.63;8.17;;;20.70;99.90;;;;;;5095245;28;20481;-69
2021/06/23 07:26:34;;;;;;;24.80;22.50;;;20.70;99.90;;;;;;5094973;28;20457;-69
2021/06/23 07:29:03;;;;;;;8.03;7.33;;;20.70;99.90;;;;;;5095530;28;20457;-69
2021/06/23 07:31:39;;;;;;;7.87;4.97;;;20.80;99.90;;;;;;5094839;28;20535;-69
2021/06/23 07:34:20;;;;;;;9.73;8.23;;;20.80;99.90;;;;;;5095350;28;20438;-69
2021/06/23 07:36:48;;;;;;;6.87;6.23;;;20.90;99.90;;;;;;5095395;28;20463;-69
2021/06/23 07:39:18;;;;;;;8.17;4.00;;;21.10;99.90;;;;;;5095370;28;20468;-70
2021/06/23 07:41:47;;;;;;;10.17;8.30;;;21.10;99.90;;;;;;5095252;28;20840;-70
2021/06/23 07:44:17;;;;;;;5.50;3.50;;;21.30;99.90;;;;;;5094956;28;20481;-68
2021/06/23 07:46:47;;;;;;;4.40;3.47;;;21.30;99.90;;;;;;5094533;28;20473;-69
2021/06/23 07:49:16;;;;;;;7.83;3.83;;;21.30;99.90;;;;;;5094935;28;20528;-70
2021/06/23 07:51:46;;;;;;;6.67;3.27;;;21.30;99.90;;;;;;5095127;28;20550;-69
2021/06/23 07:54:19;;;;;;;4.87;3.50;;;21.30;99.90;;;;;;5094672;28;20492;-69
2021/06/23 08:01:04;;;;;;;10.40;3.30;;;21.30;99.90;;;;;;5094800;28;20490;-69
2021/06/23 08:02:52;;;;;;;7.13;3.43;;;21.40;99.90;;;;;;5094519;28;20444;-69
2021/06/23 08:08:19;;;;;;;6.57;3.30;;;21.30;99.90;;;;;;5094831;28;20467;-68
2021/06/23 08:10:48;;;;;;;6.40;3.03;;;21.20;99.90;;;;;;5095534;28;20484;-69
2021/06/23 08:13:17;;;;;;;3.50;3.03;;;21.30;99.90;;;;;;5094607;28;20843;-69
2021/06/23 08:15:46;;;;;;;6.43;3.63;;;21.40;99.90;;;;;;5094378;28;20457;-68
2021/06/23 08:18:15;;;;;;;3.77;2.90;;;21.50;99.90;;;;;;5094193;28;20464;-70
2021/06/23 08:20:42;;;;;;;4.90;3.10;;;21.60;99.90;;;;;;5094870;28;20789;-69
2021/06/23 08:23:10;;;;;;;4.87;2.90;;;21.70;99.90;;;;;;5094672;28;20467;-69
2021/06/23 08:25:37;;;;;;;5.00;3.30;;;21.70;99.90;;;;;;5094554;28;20473;-68
2021/06/23 08:28:05;;;;;;;6.47;3.40;;;21.70;99.90;;;;;;5094264;28;20453;-69
2021/06/23 08:30:33;;;;;;;4.00;3.40;;;21.70;99.90;;;;;;5094762;28;20819;-69
2021/06/23 08:33:01;;;;;;;7.17;3.73;;;21.80;99.90;;;;;;5094292;28;20914;-69
2021/06/23 08:35:28;;;;;;;10.10;3.40;;;21.90;91.80;;;;;;5094639;28;20544;-69
2021/06/23 08:37:55;;;;;;;4.70;3.00;;;22.00;78.30;;;;;;5095059;28;20461;-68
2021/06/23 08:40:23;;;;;;;10.00;3.80;;;22.20;43.80;;;;;;5097832;28;20457;-69
2021/06/23 08:42:49;;;;;;;6.13;3.10;;;22.20;34.90;;;;;;5098360;28;20449;-69
2021/06/23 08:45:17;;;;;;;4.37;2.80;;;22.20;37.90;;;;;;5098106;28;20490;-69
2021/06/23 08:47:47;;;;;;;4.40;2.47;;;22.30;33.90;;;;;;5098878;28;20480;-69
2021/06/23 08:50:16;;;;;;;4.40;3.00;;;22.40;37.90;;;;;;5098983;28;20835;-69
2021/06/23 08:52:43;;;;;;;4.50;3.47;;;22.50;13.90;;;;;;5098683;28;20774;-70
2021/06/23 08:55:11;;;;;;;6.23;2.80;;;22.60;7.10;;;;;;5098543;28;20464;-69
2021/06/23 08:57:37;;;;;;;8.73;3.70;;;22.70;1.00;;;;;;5097678;28;20478;-69
2021/06/23 09:00:06;;;;;;;8.00;2.80;;;22.70;1.00;;;;;;5099155;28;20458;-68
2021/06/23 09:02:34;;;;;;;10.07;2.80;;;22.70;1.00;;;;;;5098887;28;20457;-68
2021/06/23 09:05:05;;;;;;;10.10;3.67;;;22.60;1.00;;;;;;5099819;28;20883;-69
2021/06/23 09:07:40;;;;;;;7.37;2.83;;;22.60;1.00;;;;;;5099232;28;20448;-70
2021/06/23 09:10:09;;;;;;;8.80;3.40;;;22.60;1.00;;;;;;5099534;28;20475;-68
2021/06/23 09:12:36;;;;;;;10.00;3.80;;;22.50;1.00;;;;;;5101671;28;20461;-68
2021/06/23 09:15:03;;;;;;;6.30;2.70;;;22.50;1.00;;;;;;5099063;28;20448;-68
2021/06/23 09:17:29;;;;;;;5.50;2.67;;;22.60;1.00;;;;;;5099108;28;20453;-69
2021/06/23 09:19:58;;;;;;;7.80;3.53;;;22.60;1.00;;;;;;5099037;28;20456;-69
2021/06/23 09:22:39;;;;;;;9.73;3.30;;;22.50;1.00;;;;;;5098761;28;20460;-68
2021/06/23 09:25:24;;;;;;;5.83;3.33;;;22.40;1.00;;;;;;5099611;28;20530;-68
2021/06/23 09:27:52;;;;;;;5.80;3.10;;;22.40;1.00;;;;;;5099363;28;20448;-68
2021/06/23 09:30:24;;;;;;;8.27;3.43;;;22.30;1.00;;;;;;5098333;28;20468;-70
2021/06/23 09:33:06;;;;;;;5.10;2.60;;;22.30;1.00;;;;;;5099908;28;20475;-69
2021/06/23 09:35:33;;;;;;;4.90;2.80;;;22.30;1.00;;;;;;5099863;28;20434;-69
2021/06/23 09:38:02;;;;;;;4.40;3.20;;;22.40;1.00;;;;;;5098371;28;20457;-69
2021/06/23 09:40:30;;;;;;;8.33;3.23;;;22.40;1.00;;;;;;5098230;28;20955;-69
2021/06/23 09:43:01;;;;;;;6.47;3.03;;;22.40;1.00;;;;;;5098664;28;20492;-68
2021/06/23 09:45:29;;;;;;;4.53;3.00;;;22.40;1.00;;;;;;5097992;28;20472;-69
2021/06/23 09:47:59;;;;;;;4.80;3.10;;;22.50;1.00;;;;;;5097593;28;20484;-70
2021/06/23 09:50:30;;;;;;;5.20;2.57;;;22.40;1.00;;;;;;5096325;28;20481;-70
2021/06/23 09:53:01;;;;;;;3.53;3.03;;;22.40;1.00;;;;;;5098020;28;20438;-69
2021/06/23 09:55:37;;;;;;;7.80;3.53;;;22.50;1.00;;;;;;5097701;28;20441;-69
2021/06/23 09:58:08;;;;;;;4.93;3.20;;;22.50;1.00;;;;;;5097522;28;20452;-69
2021/06/23 10:01:00;;;;;;;5.83;3.47;;;22.70;1.00;;;;;;5097901;28;20477;-70
2021/06/23 10:03:27;;;;;;;6.10;3.53;;;22.80;1.00;;;;;;5097760;28;20453;-70
2021/06/23 10:05:54;;;;;;;4.83;3.47;;;23.00;1.00;;;;;;5097988;28;20488;-69
2021/06/23 10:08:22;;;;;;;6.77;3.40;;;23.10;1.00;;;;;;5098288;28;20464;-70
2021/06/23 10:10:51;;;;;;;5.33;3.17;;;23.20;1.00;;;;;;5097959;28;20932;-68
2021/06/23 10:13:18;;;;;;;5.30;3.07;;;23.30;1.00;;;;;;5098896;28;20461;-69
2021/06/23 10:15:45;;;;;;;4.07;2.87;;;23.30;1.00;;;;;;5097351;28;20449;-69
2021/06/23 10:18:13;;;;;;;6.30;3.53;;;23.40;1.00;;;;;;5097340;28;20481;-69
2021/06/23 10:20:39;;;;;;;5.03;3.50;;;23.40;1.00;;;;;;5097057;28;20914;-69
2021/06/23 10:23:07;;;;;;;7.53;3.63;;;23.50;1.00;;;;;;5097613;28;20465;-69
2021/06/23 10:25:34;;;;;;;3.50;2.67;;;23.50;1.00;;;;;;5098013;28;20488;-69
2021/06/23 10:28:03;;;;;;;7.00;3.00;;;23.60;1.00;;;;;;5097442;28;20765;-69
2021/06/23 10:30:31;;;;;;;6.03;3.77;;;23.70;1.00;;;;;;5096857;28;20453;-69
2021/06/23 10:32:58;;;;;;;6.90;3.10;;;23.80;1.00;;;;;;5097068;28;20494;-69
2021/06/23 10:35:26;;;;;;;6.03;3.83;;;23.90;1.00;;;;;;5097013;28;20835;-69
2021/06/23 10:37:53;;;;;;;6.97;3.20;;;24.00;1.00;;;;;;5096992;28;20457;-69
2021/06/23 10:40:21;;;;;;;4.77;3.50;;;24.00;1.00;;;;;;5096548;28;20465;-68
2021/06/23 10:42:48;;;;;;;3.47;3.10;;;24.10;1.00;;;;;;5096253;28;20456;-69
2021/06/23 10:45:16;;;;;;;5.17;3.37;;;24.10;1.00;;;;;;5096662;28;20477;-68
2021/06/23 10:47:45;;;;;;;5.17;3.10;;;23.90;1.00;;;;;;5097898;28;20542;-70
2021/06/23 10:50:30;;;;;;;6.43;3.53;;;23.70;1.00;;;;;;5097104;28;20457;-69
2021/06/23 10:52:58;;;;;;;9.50;3.30;;;23.60;1.00;;;;;;5096445;28;20477;-69
2021/06/23 10:55:46;;;;;;;7.63;4.13;;;23.30;1.00;;;;;;5096131;28;20800;-69
2021/06/23 10:58:13;;;;;;;5.47;3.40;;;23.00;1.00;;;;;;5095520;28;20437;-68
2021/06/23 11:00:46;;;;;;;5.30;3.00;;;22.80;1.00;;;;;;5095780;28;20452;-69
2021/06/23 11:03:14;;;;;;;6.93;3.80;;;22.50;1.00;;;;;;5095609;28;20537;-69
2021/06/23 11:05:44;;;;;;;4.13;3.27;;;22.30;1.00;;;;;;5095713;28;20485;-70
2021/06/23 11:08:28;;;;;;;4.20;3.60;;;22.10;1.00;;;;;;5095602;28;20457;-68
2021/06/23 11:10:55;;;;;;;8.17;3.53;;;21.80;1.00;;;;;;5095607;28;20467;-69
2021/06/23 11:13:24;;;;;;;5.70;3.80;;;21.70;1.00;;;;;;5095418;28;20457;-69
2021/06/23 11:15:54;;;;;;;5.60;3.40;;;21.50;1.00;;;;;;5095569;28;20465;-69
2021/06/23 11:18:35;;;;;;;6.53;3.60;;;21.40;1.00;;;;;;5095404;28;20468;-68
2021/06/23 11:21:13;;;;;;;5.07;3.60;;;21.20;1.00;;;;;;5095044;28;20447;-69
2021/06/23 11:23:43;;;;;;;6.63;3.50;;;21.20;1.00;;;;;;5095163;28;20438;-69
2021/06/23 11:26:30;;;;;;;5.40;3.53;;;21.10;1.00;;;;;;5095597;28;20481;-69
2021/06/23 11:29:04;;;;;;;7.23;3.57;;;21.00;1.00;;;;;;5095079;28;20561;-69
2021/06/23 11:31:43;;;;;;;6.80;3.80;;;21.00;1.00;;;;;;5095372;28;20449;-69
2021/06/23 11:34:11;;;;;;;9.07;3.70;;;21.00;1.00;;;;;;5095707;28;20441;-69
2021/06/23 11:36:38;;;;;;;7.50;3.37;;;21.10;1.00;;;;;;5095403;28;20453;-69
2021/06/23 11:39:06;;;;;;;5.93;3.73;;;21.00;1.00;;;;;;5095084;28;20464;-69
2021/06/23 11:41:33;;;;;;;5.20;3.70;;;20.90;1.00;;;;;;5095939;28;20453;-69
2021/06/23 11:44:00;;;;;;;7.07;4.50;;;20.80;1.00;;;;;;5095600;28;20453;-69
2021/06/23 11:46:26;;;;;;;9.27;4.57;;;20.70;1.00;;;;;;5095157;28;20496;-68
2021/06/23 11:48:54;;;;;;;4.17;3.50;;;20.70;1.00;;;;;;5096196;28;20889;-68
2021/06/23 11:51:23;;;;;;;5.80;4.87;;;20.70;1.00;;;;;;5095195;28;20453;-68
2021/06/23 11:53:50;;;;;;;6.00;4.07;;;20.70;1.00;;;;;;5094901;28;20464;-68
2021/06/23 11:56:17;;;;;;;6.30;3.63;;;20.70;1.00;;;;;;5094922;28;20810;-68
2021/06/23 11:58:43;;;;;;;6.10;3.87;;;20.80;1.00;;;;;;5094827;28;20468;-68
2021/06/23 12:01:11;;;;;;;7.00;3.70;;;20.90;1.00;;;;;;5094993;28;20452;-69
2021/06/23 12:03:37;;;;;;;5.33;3.70;;;21.00;1.00;;;;;;5094935;28;20460;-68
2021/06/23 12:06:06;;;;;;;5.00;3.70;;;21.00;1.00;;;;;;5095062;28;20496;-68
2021/06/23 12:08:32;;;;;;;8.60;4.03;;;21.00;1.00;;;;;;5094702;28;20457;-69
2021/06/23 12:10:59;;;;;;;4.73;3.63;;;21.00;1.00;;;;;;5094469;28;20491;-68
2021/06/23 12:13:26;;;;;;;6.13;4.20;;;20.90;1.00;;;;;;5094826;28;20484;-68
2021/06/23 12:15:53;;;;;;;11.80;4.00;;;20.90;1.60;;;;;;5098301;28;20464;-68
2021/06/23 12:18:19;;;;;;;4.90;3.67;;;20.70;9.60;;;;;;5098768;28;20518;-68
2021/06/23 12:20:46;;;;;;;7.20;3.97;;;20.60;19.70;;;;;;5098906;28;20828;-68
2021/06/23 12:23:15;;;;;;;6.90;4.20;;;20.50;40.70;;;;;;5099190;28;20922;-68
2021/06/23 12:25:45;;;;;;;8.70;4.17;;;20.50;88.90;;;;;;5099700;28;20484;-68
2021/06/23 12:28:14;;;;;;;7.03;4.03;;;20.40;99.90;;;;;;5099647;28;20457;-68
2021/06/23 12:30:41;;;;;;;12.00;5.33;;;20.40;99.90;;;;;;5099585;28;20457;-67
2021/06/23 12:33:10;;;;;;;9.17;4.70;;;20.50;99.90;;;;;;5098755;28;20940;-68
2021/06/23 12:35:38;;;;;;;5.53;4.30;;;20.40;99.90;;;;;;5099588;28;20445;-68
2021/06/23 12:38:07;;;;;;;9.27;4.40;;;20.30;99.90;;;;;;5102997;28;20448;-69
2021/06/23 12:40:36;;;;;;;5.70;4.50;;;20.30;99.90;;;;;;5101510;28;20453;-68
2021/06/23 12:43:03;;;;;;;9.93;4.90;;;20.10;99.90;;;;;;5099997;28;20450;-68
2021/06/23 12:45:30;;;;;;;9.50;5.00;;;19.90;1.00;;;;;;5099869;28;20968;-68
2021/06/23 12:47:56;;;;;;;13.60;5.63;;;19.70;1.00;;;;;;5099215;28;20476;-68
2021/06/23 12:50:23;;;;;;;6.60;5.10;;;19.60;1.00;;;;;;5099418;28;20910;-68
2021/06/23 12:52:51;;;;;;;11.83;5.00;;;19.40;1.00;;;;;;5099927;28;20460;-68
2021/06/23 12:55:18;;;;;;;7.43;4.37;;;19.30;1.00;;;;;;5100023;28;20456;-68
2021/06/23 12:57:46;;;;;;;10.33;5.60;;;19.10;1.00;;;;;;5099231;28;20464;-68
2021/06/23 13:00:16;;;;;;;8.37;4.93;;;19.10;1.00;;;;;;5099489;28;20510;-68
2021/06/23 13:02:44;;;;;;;4.83;4.00;;;19.00;1.00;;;;;;5099727;28;20544;-70
2021/06/23 13:05:12;;;;;;;8.90;5.10;;;19.00;99.90;;;;;;5098871;28;20473;-68
2021/06/23 13:07:39;;;;;;;14.17;5.10;;;19.00;1.00;;;;;;5099222;28;20464;-68